createdAt,value
2023-05-05T00:03:44.867Z,3.78
2023-05-05T00:08:47.741Z,5.75
2023-05-05T00:13:50.048Z,4.38
2023-05-05T00:18:52.710Z,5.63
2023-05-05T00:23:55.271Z,5.18
2023-05-05T00:28:57.608Z,5.38
2023-05-05T00:33:59.961Z,5.40
2023-05-05T00:39:02.268Z,5.55
2023-05-05T00:44:04.816Z,5.03
2023-05-05T00:49:07.486Z,5.32
2023-05-05T00:54:09.978Z,5.10
2023-05-05T01:04:38.150Z,5.57
2023-05-05T01:10:18.296Z,6.00
2023-05-05T01:15:40.605Z,5.00
2023-05-05T01:20:54.360Z,6.07
2023-05-05T01:26:27.357Z,5.32
2023-05-05T01:31:52.183Z,5.70
2023-05-05T01:37:07.936Z,5.45
2023-05-05T01:42:15.541Z,5.15
2023-05-05T01:47:20.187Z,5.28
2023-05-05T01:52:24.479Z,5.88
2023-05-05T01:57:30.082Z,5.55
2023-05-05T02:02:35.561Z,5.43
2023-05-05T02:07:38.352Z,5.72
2023-05-05T02:12:43.491Z,5.35
2023-05-05T02:17:47.862Z,6.18
2023-05-05T02:22:51.437Z,6.63
2023-05-05T02:27:57.887Z,6.45
2023-05-05T02:33:09.763Z,6.07
2023-05-05T02:38:17.639Z,5.95
2023-05-05T02:43:23.753Z,5.47
2023-05-05T02:48:26.217Z,5.93
2023-05-05T02:53:29.705Z,6.20
2023-05-05T02:58:46.668Z,6.60
2023-05-05T03:04:08.523Z,5.88
2023-05-05T03:09:16.359Z,5.82
2023-05-05T03:14:21.540Z,5.43
2023-05-05T03:19:25.260Z,6.93
2023-05-05T03:24:27.511Z,5.03
2023-05-05T03:29:30.599Z,4.72
2023-05-05T03:34:33.174Z,4.30
2023-05-05T03:39:35.433Z,5.40
2023-05-05T03:44:37.666Z,5.28
2023-05-05T03:49:39.969Z,5.38
2023-05-05T03:54:43.521Z,5.82
2023-05-05T03:59:46.067Z,6.15
2023-05-05T04:04:48.269Z,5.60
2023-05-05T04:09:50.623Z,5.80
2023-05-05T04:14:53.055Z,5.70
2023-05-05T04:19:55.295Z,5.50
2023-05-05T04:24:57.574Z,4.55
2023-05-05T04:29:59.836Z,4.25
2023-05-05T04:35:02.071Z,4.35
2023-05-05T04:40:04.737Z,4.63
2023-05-05T04:45:07.675Z,4.72
2023-05-05T04:50:11.648Z,4.50
2023-05-05T04:55:14.004Z,5.60
2023-05-05T05:00:16.746Z,5.25
2023-05-05T05:05:19.348Z,5.00
2023-05-05T05:10:21.780Z,5.80
2023-05-05T05:15:24.130Z,5.88
2023-05-05T05:20:26.396Z,6.38
2023-05-05T05:25:29.363Z,5.50
2023-05-05T05:30:31.789Z,5.55
2023-05-05T05:35:34.005Z,4.65
2023-05-05T05:40:36.834Z,4.30
2023-05-05T05:45:39.043Z,4.45
2023-05-05T05:50:41.216Z,4.50
2023-05-05T05:55:46.998Z,4.53
2023-05-05T06:00:49.753Z,4.57
2023-05-05T06:05:52.062Z,4.47
2023-05-05T06:10:54.297Z,5.35
2023-05-05T06:15:56.590Z,5.88
2023-05-05T06:20:58.929Z,5.40
2023-05-05T06:26:01.276Z,6.03
2023-05-05T06:31:03.553Z,5.63
2023-05-05T06:36:06.047Z,5.35
2023-05-05T06:41:08.370Z,4.75
2023-05-05T06:46:10.679Z,4.43
2023-05-05T06:51:12.873Z,4.97
2023-05-05T06:56:15.162Z,5.22
2023-05-05T07:01:17.570Z,4.32
2023-05-05T07:06:19.818Z,4.50
2023-05-05T07:11:22.060Z,5.18
2023-05-05T07:16:27.409Z,4.70
2023-05-05T07:21:29.882Z,4.45
2023-05-05T07:26:32.546Z,4.63
2023-05-05T07:31:34.862Z,5.03
2023-05-05T07:36:37.216Z,4.85
2023-05-05T07:41:39.485Z,5.57
2023-05-05T07:46:42.149Z,4.80
2023-05-05T07:51:45.273Z,5.03
2023-05-05T07:56:47.482Z,4.80
2023-05-05T08:01:49.716Z,5.03
2023-05-05T08:06:51.962Z,4.38
2023-05-05T08:11:54.204Z,5.18
2023-05-05T08:16:56.508Z,5.40
2023-05-05T08:22:01.099Z,5.63
2023-05-05T08:27:04.065Z,4.57
2023-05-05T08:32:06.446Z,5.55
2023-05-05T08:37:08.668Z,4.82
2023-05-05T08:42:11.243Z,5.25
2023-05-05T08:47:16.332Z,5.20
2023-05-05T08:52:22.980Z,5.35
2023-05-05T08:58:04.629Z,6.07
2023-05-05T09:03:07.963Z,5.97
2023-05-05T09:08:13.416Z,5.97
2023-05-05T09:13:15.667Z,5.22
2023-05-05T09:18:18.012Z,4.93
2023-05-05T09:23:21.290Z,4.90
2023-05-05T09:28:23.604Z,4.85
2023-05-05T09:33:32.481Z,4.68
2023-05-05T09:38:36.475Z,4.82
2023-05-05T09:43:52.299Z,5.13
2023-05-05T09:48:54.559Z,4.53
2023-05-05T09:53:57.229Z,4.80
2023-05-05T09:59:10.708Z,4.63
2023-05-05T10:04:28.823Z,4.40
2023-05-05T10:09:33.989Z,4.18
2023-05-05T10:14:36.764Z,4.38
2023-05-05T10:19:40.828Z,4.50
2023-05-05T10:25:03.919Z,4.38
2023-05-05T10:30:10.814Z,4.65
2023-05-05T10:35:27.653Z,4.18
2023-05-05T10:40:31.653Z,4.00
2023-05-05T10:45:34.245Z,3.97
2023-05-05T10:50:45.242Z,3.65
2023-05-05T10:55:57.637Z,3.15
2023-05-05T11:01:00.241Z,4.28
2023-05-05T11:06:05.474Z,3.63
2023-05-05T11:11:08.411Z,3.55
2023-05-05T11:16:50.352Z,3.38
2023-05-05T11:22:03.475Z,3.13
2023-05-05T11:27:06.407Z,3.92
2023-05-05T11:32:16.064Z,3.78
2023-05-05T11:37:18.472Z,3.90
2023-05-05T11:42:23.945Z,3.40
2023-05-05T11:47:27.734Z,3.55
2023-05-05T11:52:30.071Z,3.85
2023-05-05T11:57:32.448Z,3.97
2023-05-05T12:02:35.314Z,4.40
2023-05-05T12:07:37.757Z,4.90
2023-05-05T12:12:41.623Z,4.13
2023-05-05T12:17:46.488Z,4.72
2023-05-05T12:22:48.934Z,3.90
2023-05-05T12:27:54.233Z,3.78
2023-05-05T12:33:04.638Z,3.92
2023-05-05T12:38:07.396Z,3.22
2023-05-05T12:43:09.870Z,4.13
2023-05-05T12:48:24.199Z,4.30
2023-05-05T12:53:27.527Z,4.35
2023-05-05T12:58:32.128Z,4.22
2023-05-05T13:03:35.136Z,3.50
2023-05-05T13:08:44.404Z,3.45
2023-05-05T13:13:46.855Z,3.28
2023-05-05T13:18:50.484Z,3.20
2023-05-05T13:23:52.828Z,4.15
2023-05-05T13:28:55.426Z,4.05
2023-05-05T13:33:57.924Z,4.10
2023-05-05T13:39:00.215Z,3.95
2023-05-05T13:44:02.733Z,3.92
2023-05-05T13:49:04.890Z,3.90
2023-05-05T13:54:07.670Z,3.83
2023-05-05T13:59:10.539Z,3.17
2023-05-05T14:04:12.903Z,3.90
2023-05-05T14:09:15.390Z,4.00
2023-05-05T14:14:18.502Z,3.30
2023-05-05T14:19:20.881Z,3.33
2023-05-05T14:24:23.054Z,3.28
2023-05-05T14:29:25.351Z,2.75
2023-05-05T14:34:27.535Z,2.88
2023-05-05T14:39:29.831Z,3.58
2023-05-05T14:44:32.170Z,3.63
2023-05-05T14:49:34.459Z,2.63
2023-05-05T14:54:36.862Z,2.90
2023-05-05T14:59:39.237Z,3.25
2023-05-05T15:04:41.556Z,3.13
2023-05-05T15:09:43.850Z,2.80
2023-05-05T15:14:46.369Z,3.38
2023-05-05T15:19:48.697Z,3.30
2023-05-05T15:24:51.082Z,3.53
2023-05-05T15:29:53.408Z,3.00
2023-05-05T15:34:56.783Z,3.55
2023-05-05T15:39:59.270Z,3.30
2023-05-05T15:45:02.354Z,4.07
2023-05-05T15:50:05.905Z,4.85
2023-05-05T15:55:09.423Z,4.97
2023-05-05T16:00:12.348Z,4.80
2023-05-05T16:05:14.856Z,4.63
2023-05-05T16:10:19.082Z,4.65
2023-05-05T16:15:21.414Z,5.03
2023-05-05T16:20:23.948Z,4.82
2023-05-05T16:25:26.287Z,4.55
2023-05-05T16:30:29.645Z,5.15
2023-05-05T16:35:31.884Z,4.47
2023-05-05T16:40:36.813Z,4.78
2023-05-05T16:45:39.226Z,5.15
2023-05-05T16:50:41.916Z,5.97
2023-05-05T16:55:44.232Z,6.22
2023-05-05T17:00:47.426Z,6.00
2023-05-05T17:05:50.878Z,5.88
2023-05-05T17:10:53.149Z,5.90
2023-05-05T17:15:55.393Z,6.55
2023-05-05T17:20:57.664Z,5.65
2023-05-05T17:26:00.174Z,5.60
2023-05-05T17:31:02.440Z,6.38
2023-05-05T17:36:04.911Z,6.68
2023-05-05T17:41:07.176Z,6.13
2023-05-05T17:46:09.448Z,5.97
2023-05-05T17:51:11.908Z,6.80
2023-05-05T17:56:14.134Z,6.78
2023-05-05T18:01:26.695Z,6.63
2023-05-05T18:06:29.715Z,6.88
2023-05-05T18:11:32.523Z,8.32
2023-05-05T18:16:34.690Z,7.55
2023-05-05T18:21:36.957Z,8.38
2023-05-05T18:26:39.644Z,8.43
2023-05-05T18:31:42.149Z,7.82
2023-05-05T18:36:44.602Z,9.00
2023-05-05T18:41:46.893Z,9.35
2023-05-05T18:46:49.244Z,8.82
2023-05-05T18:51:51.534Z,11.05
2023-05-05T18:56:53.837Z,9.85
2023-05-05T19:01:56.187Z,8.35
2023-05-05T19:06:58.642Z,9.75
2023-05-05T19:12:00.856Z,8.98
2023-05-05T19:17:03.342Z,9.18
2023-05-05T19:22:05.632Z,8.23
2023-05-05T19:27:08.530Z,7.88
2023-05-05T19:32:10.887Z,7.95
2023-05-05T19:37:13.487Z,7.75
2023-05-05T19:42:16.696Z,7.15
2023-05-05T19:47:18.924Z,7.50
2023-05-05T19:52:23.148Z,7.53
2023-05-05T19:57:25.361Z,7.95
2023-05-05T20:02:29.959Z,8.60
2023-05-05T20:07:32.312Z,8.18
2023-05-05T20:12:34.574Z,9.02
2023-05-05T20:17:36.798Z,8.00
2023-05-05T20:22:40.582Z,8.63
2023-05-05T20:27:43.416Z,9.35
2023-05-05T20:32:45.682Z,8.60
2023-05-05T20:37:48.097Z,9.60
2023-05-05T20:42:51.211Z,9.05
2023-05-05T20:47:53.547Z,9.73
2023-05-05T20:52:55.970Z,10.55
2023-05-05T20:57:58.238Z,10.50
2023-05-05T21:03:00.622Z,9.77
2023-05-05T21:08:02.996Z,9.82
2023-05-05T21:13:05.662Z,9.38
2023-05-05T21:18:08.238Z,10.82
2023-05-05T21:23:10.530Z,11.65
2023-05-05T21:28:12.791Z,11.60
2023-05-05T21:33:15.336Z,11.38
2023-05-05T21:38:17.691Z,11.20
2023-05-05T21:43:20.048Z,10.75
2023-05-05T21:48:22.258Z,8.52
2023-05-05T21:53:24.653Z,10.07
2023-05-05T21:58:27.112Z,9.38
2023-05-05T22:03:29.562Z,9.23
2023-05-05T22:08:32.015Z,9.27
2023-05-05T22:13:34.406Z,8.05
2023-05-05T22:18:36.867Z,8.77
2023-05-05T22:23:41.978Z,9.52
2023-05-05T22:28:44.306Z,8.70
2023-05-05T22:33:46.639Z,8.10
2023-05-05T22:38:48.967Z,8.73
2023-05-05T22:43:51.306Z,8.57
2023-05-05T22:48:54.538Z,9.18
2023-05-05T22:53:56.866Z,9.25
2023-05-05T22:58:59.355Z,9.43
2023-05-05T23:04:02.035Z,8.80
2023-05-05T23:09:04.631Z,7.57
2023-05-05T23:14:06.948Z,8.10
2023-05-05T23:19:09.331Z,9.20
2023-05-05T23:24:11.733Z,9.35
2023-05-05T23:29:13.981Z,9.93
2023-05-05T23:34:16.846Z,11.27
2023-05-05T23:39:19.157Z,10.95
2023-05-05T23:44:21.980Z,10.45
2023-05-05T23:49:26.447Z,9.63
2023-05-05T23:54:28.671Z,10.00
2023-05-05T23:59:31.053Z,8.45
